Standort: A- 4920 Schildorn, St. Kollmann 6
Position: Ost 1327'49" Nord 4807'14" 563 m Seehhe
Werte der letzten 24 Stunden
Wetterdaten: aktuell Donnerstag, 22.10.2020 14:10
Datum Zeit Temp. A. Feuchte A. Luftdruck Regen Richtung Richtung Sonnenschein UV Solar Windben
22.10.2020 14:10 14,5 C 83 % 1017,9 hPa 0,0 l/m N-NO 28 6 min 0,9 UV-I 171 W/m 1,6 km/h
22.10.2020 13:10 13,0 C 83 % 1018,6 hPa 0,0 l/m NO 45 26 min 1,4 UV-I 230 W/m 6,4 km/h
22.10.2020 12:11 13,2 C 83 % 1018,7 hPa 0,0 l/m NO 36 55 min 1,9 UV-I 378 W/m 4,8 km/h
22.10.2020 11:12 11,3 C 84 % 1019,3 hPa 0,0 l/m NO 42 58 min 1,3 UV-I 247 W/m 8,0 km/h
22.10.2020 10:13 10,5 C 83 % 1018,9 hPa 0,2 l/m NO 36 60 min 0,9 UV-I 282 W/m 6,4 km/h
22.10.2020 09:14 11,8 C 78 % 1018,4 hPa 0,0 l/m SW 217 51 min 0,0 UV-I 182 W/m 8,0 km/h
22.10.2020 08:15 8,7 C 85 % 1018,3 hPa 0,0 l/m SW 227 0 min 0,0 UV-I 36 W/m 9,7 km/h
22.10.2020 07:16 8,0 C 87 % 1017,9 hPa 0,0 l/m W-SW 248 0 min 0,0 UV-I 0 W/m 9,7 km/h
22.10.2020 06:17 6,5 C 87 % 1018,2 hPa 0,0 l/m SW 234 0 min 0,0 UV-I 0 W/m 4,8 km/h
22.10.2020 05:18 6,1 C 87 % 1017,9 hPa 0,0 l/m N-NO 17 0 min 0,0 UV-I 0 W/m 1,6 km/h
22.10.2020 04:19 6,1 C 87 % 1017,3 hPa 0,0 l/m S-SW 213 0 min 0,0 UV-I 0 W/m 11,3 km/h
22.10.2020 03:20 5,5 C 87 % 1016,9 hPa 0,0 l/m W-SW 252 0 min 0,0 UV-I 0 W/m 14,5 km/h
22.10.2020 02:21 6,8 C 87 % 1017,0 hPa 0,0 l/m S-SW 196 0 min 0,0 UV-I 0 W/m 11,3 km/h
22.10.2020 01:22 5,8 C 87 % 1016,5 hPa 0,0 l/m SW 232 0 min 0,0 UV-I 0 W/m 4,8 km/h
22.10.2020 00:23 7,4 C 86 % 1015,7 hPa 0,0 l/m W-SW 252 0 min 0,0 UV-I 0 W/m 8,0 km/h
21.10.2020 23:24 7,3 C 86 % 1015,4 hPa 0,0 l/m S-SO 167 0 min 0,0 UV-I 0 W/m 11,3 km/h
21.10.2020 22:25 8,3 C 86 % 1014,5 hPa 0,0 l/m SW 225 0 min 0,0 UV-I 0 W/m 8,0 km/h
21.10.2020 21:26 8,5 C 86 % 1014,0 hPa 0,0 l/m W-SW 257 0 min 0,0 UV-I 0 W/m 20,9 km/h
21.10.2020 20:27 8,5 C 86 % 1013,8 hPa 0,0 l/m SW 215 0 min 0,0 UV-I 0 W/m 22,5 km/h
21.10.2020 19:28 9,3 C 86 % 1013,7 hPa 0,0 l/m S-SW 193 0 min 0,0 UV-I 0 W/m 30,6 km/h
21.10.2020 18:29 9,7 C 85 % 1013,9 hPa 0,0 l/m SW 224 2 min 0,0 UV-I 0 W/m 9,7 km/h
21.10.2020 17:30 10,4 C 84 % 1013,8 hPa 0,0 l/m S-SW 205 29 min 0,0 UV-I 23 W/m 11,3 km/h
21.10.2020 16:31 11,1 C 83 % 1013,8 hPa 0,0 l/m SW 231 15 min 0,0 UV-I 181 W/m 11,3 km/h
21.10.2020 15:32 11,6 C 82 % 1013,7 hPa 0,0 l/m SO 132 20 min 0,7 UV-I 166 W/m 1,6 km/h
21.10.2020 15:00 11,4 C 83 % 1013,7 hPa 0,0 l/m O-NO 69 0 min 1,0 UV-I 203 W/m 8,0 km/h
_ Min-Zeit 03:14 09:48 15:15 - - - - - - 22:40
Minimum _ 5,5 C 72 % 1013,6 hPa - - - - - - 0,0 km/h
_ Max-Zeit 14:10 23:32 10:45 09:55 - - 15:04 12:04 12:05 19:23
Maximum _ 14,5 C 87 % 1019,6 hPa 0,2 l/m - - 1 min 2,2 UV-I 557 W/m 32,2 km/h
S
Durchschnitt _ 9,4 C 85 % 1016,2 hPa #0,2 l/m SW - #4:13 h 1,3 UV-I 246 W/m 9,3 km/h
Daten ab 1. Mai 2002 - die Jahresstatistiken sind aber falsch (grere Aufzeichnungslcken)